createdAt,value
2023-05-02T00:02:25.765Z,99.90
2023-05-02T00:04:53.516Z,99.90
2023-05-02T00:07:21.420Z,99.90
2023-05-02T00:09:48.948Z,99.90
2023-05-02T00:12:16.529Z,99.90
2023-05-02T00:14:44.051Z,99.90
2023-05-02T00:17:20.504Z,99.90
2023-05-02T00:19:48.453Z,99.90
2023-05-02T00:22:15.988Z,99.90
2023-05-02T00:24:43.576Z,99.90
2023-05-02T00:27:11.721Z,99.90
2023-05-02T00:29:39.196Z,99.90
2023-05-02T00:32:07.020Z,99.90
2023-05-02T00:34:34.564Z,99.90
2023-05-02T00:37:02.097Z,99.90
2023-05-02T00:39:29.686Z,99.90
2023-05-02T00:41:58.854Z,99.90
2023-05-02T00:44:26.578Z,99.90
2023-05-02T00:46:55.772Z,99.90
2023-05-02T00:49:23.320Z,99.90
2023-05-02T00:51:50.967Z,99.90
2023-05-02T00:54:18.793Z,99.90
2023-05-02T00:56:47.004Z,99.90
2023-05-02T00:59:15.518Z,99.90
2023-05-02T01:02:12.929Z,99.90
2023-05-02T01:05:04.959Z,99.90
2023-05-02T01:07:47.082Z,99.90
2023-05-02T01:11:12.077Z,99.90
2023-05-02T01:13:42.385Z,99.90
2023-05-02T01:16:13.123Z,99.90
2023-05-02T01:18:43.768Z,99.90
2023-05-02T01:21:12.261Z,99.90
2023-05-02T01:24:16.738Z,99.90
2023-05-02T01:27:18.883Z,99.90
2023-05-02T01:29:49.772Z,99.90
2023-05-02T01:32:21.891Z,99.90
2023-05-02T01:34:52.281Z,99.90
2023-05-02T01:37:21.532Z,99.90
2023-05-02T01:39:51.165Z,99.90
2023-05-02T01:42:21.110Z,99.90
2023-05-02T01:44:50.465Z,99.90
2023-05-02T01:47:19.812Z,99.90
2023-05-02T01:49:48.215Z,99.90
2023-05-02T01:52:16.725Z,99.90
2023-05-02T01:54:45.357Z,99.90
2023-05-02T01:57:14.157Z,99.90
2023-05-02T01:59:44.716Z,99.90
2023-05-02T02:02:14.276Z,99.90
2023-05-02T02:04:44.012Z,99.90
2023-05-02T02:07:14.059Z,99.90
2023-05-02T02:09:41.965Z,99.90
2023-05-02T02:12:42.142Z,99.90
2023-05-02T02:15:27.604Z,99.90
2023-05-02T02:18:09.880Z,99.90
2023-05-02T02:20:39.080Z,99.90
2023-05-02T02:23:08.705Z,99.90
2023-05-02T02:25:37.474Z,99.90
2023-05-02T02:28:06.059Z,99.90
2023-05-02T02:30:34.521Z,99.90
2023-05-02T02:33:02.123Z,99.90
2023-05-02T02:35:37.589Z,99.90
2023-05-02T02:38:23.233Z,99.90
2023-05-02T02:40:59.752Z,99.90
2023-05-02T02:43:48.253Z,99.90
2023-05-02T02:46:43.779Z,99.90
2023-05-02T02:49:49.756Z,99.90
2023-05-02T02:52:48.242Z,99.90
2023-05-02T02:55:54.600Z,99.90
2023-05-02T02:58:39.551Z,99.90
2023-05-02T03:01:14.810Z,99.90
2023-05-02T03:03:44.344Z,99.90
2023-05-02T03:06:12.166Z,99.90
2023-05-02T03:08:41.434Z,99.90
2023-05-02T03:11:12.316Z,99.90
2023-05-02T03:13:40.279Z,99.90
2023-05-02T03:16:23.240Z,99.90
2023-05-02T03:18:50.757Z,99.90
2023-05-02T03:21:18.346Z,99.90
2023-05-02T03:23:45.912Z,99.90
2023-05-02T03:26:13.618Z,99.90
2023-05-02T03:28:41.947Z,99.90
2023-05-02T03:31:09.573Z,99.90
2023-05-02T03:33:40.016Z,99.90
2023-05-02T03:36:07.818Z,99.90
2023-05-02T03:38:35.417Z,99.90
2023-05-02T03:41:07.665Z,99.90
2023-05-02T03:43:35.685Z,99.90
2023-05-02T03:46:09.131Z,99.90
2023-05-02T03:48:40.050Z,99.90
2023-05-02T03:51:09.504Z,99.90
2023-05-02T03:53:42.679Z,99.90
2023-05-02T03:56:10.885Z,99.90
2023-05-02T03:58:49.215Z,99.90
2023-05-02T04:01:20.394Z,99.90
2023-05-02T04:03:52.033Z,99.90
2023-05-02T04:06:22.461Z,99.90
2023-05-02T04:08:58.454Z,99.90
2023-05-02T04:11:28.603Z,99.90
2023-05-02T04:13:56.396Z,99.90
2023-05-02T04:16:24.921Z,99.90
2023-05-02T04:18:52.486Z,99.90
2023-05-02T04:21:20.672Z,99.90
2023-05-02T04:23:48.761Z,99.90
2023-05-02T04:26:16.926Z,99.90
2023-05-02T04:28:53.990Z,99.90
2023-05-02T04:31:21.568Z,99.90
2023-05-02T04:33:49.232Z,99.90
2023-05-02T04:36:22.870Z,99.90
2023-05-02T04:38:50.922Z,99.90
2023-05-02T04:41:19.645Z,99.90
2023-05-02T04:43:53.289Z,99.90
2023-05-02T04:46:20.885Z,99.90
2023-05-02T04:48:48.554Z,99.90
2023-05-02T04:51:17.192Z,99.90
2023-05-02T04:53:47.417Z,99.90
2023-05-02T04:56:15.685Z,99.90
2023-05-02T04:58:43.602Z,99.90
2023-05-02T05:01:13.005Z,99.90
2023-05-02T05:03:41.483Z,99.90
2023-05-02T05:06:10.789Z,99.90
2023-05-02T05:08:38.544Z,99.90
2023-05-02T05:11:06.530Z,99.90
2023-05-02T05:13:34.566Z,99.90
2023-05-02T05:16:02.854Z,99.90
2023-05-02T05:18:40.186Z,99.90
2023-05-02T05:21:10.571Z,99.90
2023-05-02T05:23:38.613Z,99.90
2023-05-02T05:26:17.377Z,99.90
2023-05-02T05:28:48.191Z,99.90
2023-05-02T05:31:17.123Z,99.90
2023-05-02T05:33:48.354Z,99.90
2023-05-02T05:36:17.152Z,99.90
2023-05-02T05:38:44.900Z,99.90
2023-05-02T05:41:12.552Z,99.90
2023-05-02T05:43:44.792Z,99.90
2023-05-02T05:46:12.758Z,99.90
2023-05-02T05:48:40.259Z,99.90
2023-05-02T05:51:07.868Z,99.90
2023-05-02T05:53:35.663Z,99.90
2023-05-02T05:56:13.276Z,99.90
2023-05-02T05:58:46.668Z,99.90
2023-05-02T06:01:15.300Z,99.90
2023-05-02T06:03:43.072Z,99.90
2023-05-02T06:06:10.854Z,99.90
2023-05-02T06:08:38.435Z,99.90
2023-05-02T06:11:12.101Z,99.90
2023-05-02T06:13:39.689Z,99.90
2023-05-02T06:16:08.571Z,99.90
2023-05-02T06:18:36.164Z,99.90
2023-05-02T06:21:05.657Z,99.90
2023-05-02T06:23:33.265Z,99.90
2023-05-02T06:26:03.025Z,99.90
2023-05-02T06:28:31.760Z,99.90
2023-05-02T06:31:04.544Z,99.90
2023-05-02T06:33:33.683Z,99.90
2023-05-02T06:36:02.148Z,99.90
2023-05-02T06:38:30.186Z,99.90
2023-05-02T06:40:57.726Z,99.90
2023-05-02T06:43:25.319Z,99.90
2023-05-02T06:45:54.943Z,99.90
2023-05-02T06:48:22.941Z,99.90
2023-05-02T06:50:53.870Z,99.90
2023-05-02T06:53:21.471Z,99.90
2023-05-02T06:55:49.633Z,99.90
2023-05-02T06:58:17.220Z,99.90
2023-05-02T07:00:44.778Z,99.90
2023-05-02T07:03:12.676Z,99.90
2023-05-02T07:05:40.307Z,99.90
2023-05-02T07:08:09.062Z,99.90
2023-05-02T07:10:37.278Z,99.90
2023-05-02T07:13:04.805Z,99.90
2023-05-02T07:15:32.351Z,99.90
2023-05-02T07:17:59.953Z,99.90
2023-05-02T07:20:27.486Z,99.90
2023-05-02T07:22:55.011Z,99.90
2023-05-02T07:25:22.528Z,99.90
2023-05-02T07:27:50.014Z,99.90
2023-05-02T07:30:17.563Z,99.90
2023-05-02T07:32:45.398Z,99.90
2023-05-02T07:35:12.980Z,99.90
2023-05-02T07:37:40.663Z,99.90
2023-05-02T07:40:09.439Z,99.90
2023-05-02T07:42:37.091Z,99.90
2023-05-02T07:45:05.145Z,99.90
2023-05-02T07:47:32.675Z,99.90
2023-05-02T07:50:00.724Z,99.90
2023-05-02T07:52:28.465Z,99.90
2023-05-02T07:54:56.297Z,99.90
2023-05-02T07:57:24.017Z,99.90
2023-05-02T07:59:51.976Z,99.90
2023-05-02T08:02:20.711Z,99.90
2023-05-02T08:04:49.072Z,99.90
2023-05-02T08:07:17.015Z,99.90
2023-05-02T08:09:44.690Z,99.90
2023-05-02T08:12:12.237Z,99.90
2023-05-02T08:14:40.799Z,99.90
2023-05-02T08:17:08.316Z,99.90
2023-05-02T08:19:35.920Z,99.90
2023-05-02T08:22:03.502Z,99.90
2023-05-02T08:24:31.341Z,99.90
2023-05-02T08:26:58.844Z,99.90
2023-05-02T08:29:26.341Z,99.90
2023-05-02T08:31:53.864Z,99.90
2023-05-02T08:34:21.416Z,99.90
2023-05-02T08:36:48.919Z,99.90
2023-05-02T08:39:17.047Z,99.90
2023-05-02T08:41:44.909Z,99.90
2023-05-02T08:44:12.567Z,99.90
2023-05-02T08:46:43.378Z,99.90
2023-05-02T08:49:11.862Z,99.90
2023-05-02T08:51:42.340Z,99.90
2023-05-02T08:54:10.610Z,99.90
2023-05-02T08:56:38.744Z,99.90
2023-05-02T08:59:07.268Z,99.90
2023-05-02T09:01:36.141Z,99.90
2023-05-02T09:04:04.786Z,99.90
2023-05-02T09:06:32.831Z,99.90
2023-05-02T09:09:01.033Z,99.90
2023-05-02T09:11:29.355Z,99.90
2023-05-02T09:13:58.972Z,99.90
2023-05-02T09:16:28.458Z,99.90
2023-05-02T09:18:58.665Z,99.90
2023-05-02T09:21:40.122Z,99.90
2023-05-02T09:24:21.975Z,99.90
2023-05-02T09:27:00.954Z,99.90
2023-05-02T09:29:36.024Z,99.90
2023-05-02T09:32:06.088Z,99.90
2023-05-02T09:34:34.367Z,99.90
2023-05-02T09:37:03.858Z,99.90
2023-05-02T09:39:31.544Z,99.90
2023-05-02T09:41:59.840Z,99.90
2023-05-02T09:44:37.552Z,99.90
2023-05-02T09:47:06.720Z,99.90
2023-05-02T09:49:46.120Z,99.10
2023-05-02T09:52:23.408Z,99.90
2023-05-02T09:54:52.537Z,99.90
2023-05-02T09:57:20.519Z,94.60
2023-05-02T09:59:58.827Z,99.60
2023-05-02T10:02:30.119Z,98.80
2023-05-02T10:04:58.953Z,99.90
2023-05-02T10:07:27.479Z,95.20
2023-05-02T10:09:58.383Z,97.00
2023-05-02T10:12:30.607Z,93.70
2023-05-02T10:15:03.895Z,93.60
2023-05-02T10:17:34.051Z,93.10
2023-05-02T10:20:05.611Z,86.30
2023-05-02T10:22:36.833Z,82.40
2023-05-02T10:25:04.994Z,76.00
2023-05-02T10:27:33.346Z,76.50
2023-05-02T10:30:04.255Z,77.10
2023-05-02T10:32:34.550Z,77.40
2023-05-02T10:35:07.045Z,75.00
2023-05-02T10:37:38.285Z,74.40
2023-05-02T10:40:14.558Z,79.10
2023-05-02T10:42:47.839Z,79.30
2023-05-02T10:45:35.808Z,74.20
2023-05-02T10:48:27.321Z,76.80
2023-05-02T10:51:01.641Z,77.30
2023-05-02T10:53:38.911Z,74.90
2023-05-02T10:56:18.023Z,76.60
2023-05-02T10:58:48.815Z,72.30
2023-05-02T11:01:28.494Z,71.20
2023-05-02T11:04:01.051Z,74.10
2023-05-02T11:06:31.082Z,72.30
2023-05-02T11:09:17.581Z,73.30
2023-05-02T11:11:46.158Z,72.20
2023-05-02T11:14:39.273Z,73.50
2023-05-02T11:17:10.882Z,73.30
2023-05-02T11:19:38.334Z,72.10
2023-05-02T11:22:18.973Z,72.70
2023-05-02T11:24:48.384Z,67.20
2023-05-02T11:27:31.254Z,65.50
2023-05-02T11:29:59.524Z,65.10
2023-05-02T11:32:49.225Z,67.30
2023-05-02T11:35:26.031Z,65.90
2023-05-02T11:38:05.085Z,64.90
2023-05-02T11:40:32.836Z,66.00
2023-05-02T11:43:01.309Z,67.00
2023-05-02T11:45:39.221Z,67.40
2023-05-02T11:48:08.670Z,69.40
2023-05-02T11:50:50.335Z,66.40
2023-05-02T11:53:29.241Z,65.30
2023-05-02T11:56:02.557Z,68.20
2023-05-02T11:58:34.844Z,67.40
2023-05-02T12:01:16.340Z,65.70
2023-05-02T12:03:45.064Z,67.00
2023-05-02T12:06:20.523Z,65.50
2023-05-02T12:08:49.076Z,64.00
2023-05-02T12:11:17.235Z,63.90
2023-05-02T12:13:50.509Z,62.50
2023-05-02T12:16:19.192Z,62.30
2023-05-02T12:18:48.124Z,63.60
2023-05-02T12:21:17.853Z,62.50
2023-05-02T12:23:45.827Z,63.30
2023-05-02T12:26:21.821Z,62.30
2023-05-02T12:28:58.142Z,62.00
2023-05-02T12:31:28.003Z,62.50
2023-05-02T12:33:57.869Z,62.70
2023-05-02T12:36:25.992Z,62.20
2023-05-02T12:38:57.193Z,63.00
2023-05-02T12:41:35.731Z,61.40
2023-05-02T12:44:04.431Z,62.90
2023-05-02T12:46:32.350Z,61.90
2023-05-02T12:49:12.047Z,59.50
2023-05-02T12:51:40.989Z,59.60
2023-05-02T12:54:08.605Z,58.70
2023-05-02T12:56:40.588Z,57.70
2023-05-02T12:59:09.420Z,57.30
2023-05-02T13:01:36.983Z,58.80
2023-05-02T13:04:05.505Z,59.60
2023-05-02T13:06:33.249Z,56.50
2023-05-02T13:09:01.750Z,59.00
2023-05-02T13:11:29.290Z,58.00
2023-05-02T13:13:56.839Z,58.70
2023-05-02T13:16:24.571Z,56.90
2023-05-02T13:18:52.264Z,57.40
2023-05-02T13:21:19.791Z,54.30
2023-05-02T13:23:51.825Z,53.00
2023-05-02T13:26:19.395Z,54.20
2023-05-02T13:28:46.930Z,55.50
2023-05-02T13:31:14.475Z,56.30
2023-05-02T13:33:42.007Z,55.70
2023-05-02T13:36:09.496Z,54.60
2023-05-02T13:38:37.002Z,54.30
2023-05-02T13:41:05.176Z,51.80
2023-05-02T13:43:32.685Z,53.80
2023-05-02T13:46:00.660Z,53.30
2023-05-02T13:48:28.205Z,53.30
2023-05-02T13:50:55.729Z,53.20
2023-05-02T13:53:23.228Z,52.00
2023-05-02T13:55:50.737Z,51.80
2023-05-02T13:58:18.716Z,52.80
2023-05-02T14:00:47.228Z,50.60
2023-05-02T14:03:14.901Z,49.30
2023-05-02T14:05:43.653Z,48.90
2023-05-02T14:08:12.305Z,48.70
2023-05-02T14:10:39.992Z,46.80
2023-05-02T14:13:07.485Z,48.30
2023-05-02T14:15:35.051Z,49.30
2023-05-02T14:18:02.767Z,47.60
2023-05-02T14:20:30.248Z,48.40
2023-05-02T14:22:57.748Z,45.60
2023-05-02T14:25:25.295Z,47.20
2023-05-02T14:27:52.823Z,46.30
2023-05-02T14:30:20.367Z,47.50
2023-05-02T14:32:47.944Z,49.60
2023-05-02T14:35:15.646Z,48.70
2023-05-02T14:37:44.992Z,48.80
2023-05-02T14:40:13.951Z,47.40
2023-05-02T14:42:42.080Z,45.20
2023-05-02T14:45:11.395Z,45.80
2023-05-02T14:47:38.972Z,43.50
2023-05-02T14:50:07.430Z,45.20
2023-05-02T14:52:35.012Z,44.80
2023-05-02T14:55:02.815Z,44.50
2023-05-02T14:57:30.832Z,43.00
2023-05-02T14:59:58.386Z,45.40
2023-05-02T15:02:26.369Z,44.90
2023-05-02T15:04:53.950Z,42.50
2023-05-02T15:07:21.733Z,43.00
2023-05-02T15:09:49.352Z,39.80
2023-05-02T15:12:16.864Z,42.00
2023-05-02T15:14:44.529Z,39.60
2023-05-02T15:17:12.096Z,40.90
2023-05-02T15:19:39.580Z,39.20
2023-05-02T15:22:07.127Z,41.10
2023-05-02T15:24:34.685Z,41.10
2023-05-02T15:27:03.622Z,37.70
2023-05-02T15:29:31.207Z,39.70
2023-05-02T15:31:58.704Z,39.20
2023-05-02T15:34:26.928Z,41.00
2023-05-02T15:36:56.047Z,41.10
2023-05-02T15:39:26.194Z,41.10
2023-05-02T15:41:53.792Z,41.30
2023-05-02T15:44:21.391Z,41.00
2023-05-02T15:46:49.373Z,41.10
2023-05-02T15:49:17.118Z,39.10
2023-05-02T15:51:44.788Z,38.90
2023-05-02T15:54:12.390Z,40.60
2023-05-02T15:56:39.880Z,40.00
2023-05-02T15:59:07.405Z,40.00
2023-05-02T16:01:34.980Z,39.60
2023-05-02T16:04:02.482Z,40.10
2023-05-02T16:06:30.561Z,38.60
2023-05-02T16:08:58.154Z,38.90
2023-05-02T16:11:25.819Z,39.90
2023-05-02T16:13:53.423Z,39.40
2023-05-02T16:16:21.024Z,37.80
2023-05-02T16:18:48.506Z,37.60
2023-05-02T16:21:16.927Z,39.20
2023-05-02T16:23:44.479Z,38.20
2023-05-02T16:26:12.025Z,39.40
2023-05-02T16:28:39.658Z,38.80
2023-05-02T16:31:11.008Z,37.60
2023-05-02T16:33:39.218Z,36.50
2023-05-02T16:36:07.440Z,37.50
2023-05-02T16:38:36.511Z,38.00
2023-05-02T16:41:06.845Z,37.90
2023-05-02T16:43:34.800Z,37.40
2023-05-02T16:46:05.827Z,38.00
2023-05-02T16:48:34.369Z,39.20
2023-05-02T16:51:03.972Z,40.00
2023-05-02T16:53:32.156Z,39.70
2023-05-02T16:56:00.047Z,40.70
2023-05-02T16:58:29.029Z,40.80
2023-05-02T17:00:58.552Z,40.50
2023-05-02T17:03:26.131Z,38.00
2023-05-02T17:05:53.666Z,37.10
2023-05-02T17:08:22.035Z,37.40
2023-05-02T17:10:50.372Z,35.50
2023-05-02T17:13:17.873Z,37.50
2023-05-02T17:15:45.464Z,39.20
2023-05-02T17:18:12.966Z,39.60
2023-05-02T17:20:41.301Z,39.90
2023-05-02T17:23:09.764Z,41.50
2023-05-02T17:25:38.191Z,42.30
2023-05-02T17:28:06.266Z,43.30
2023-05-02T17:30:33.943Z,44.10
2023-05-02T17:33:01.789Z,45.60
2023-05-02T17:35:29.408Z,46.60
2023-05-02T17:37:57.217Z,47.60
2023-05-02T17:40:24.787Z,47.70
2023-05-02T17:42:52.333Z,48.90
2023-05-02T17:45:19.977Z,48.50
2023-05-02T17:47:47.620Z,48.60
2023-05-02T17:50:15.276Z,49.30
2023-05-02T17:52:42.846Z,49.50
2023-05-02T17:55:10.588Z,48.80
2023-05-02T17:57:38.069Z,49.10
2023-05-02T18:00:07.984Z,49.20
2023-05-02T18:02:39.758Z,48.50
2023-05-02T18:05:07.990Z,48.80
2023-05-02T18:07:35.532Z,48.40
2023-05-02T18:10:05.009Z,48.90
2023-05-02T18:12:33.558Z,49.00
2023-05-02T18:15:02.765Z,48.90
2023-05-02T18:17:31.684Z,49.00
2023-05-02T18:19:59.309Z,48.90
2023-05-02T18:22:27.833Z,49.30
2023-05-02T18:24:55.954Z,49.50
2023-05-02T18:27:23.564Z,49.80
2023-05-02T18:29:51.427Z,50.10
2023-05-02T18:32:18.917Z,50.30
2023-05-02T18:34:46.451Z,50.50
2023-05-02T18:37:14.038Z,50.60
2023-05-02T18:39:41.639Z,50.80
2023-05-02T18:42:10.575Z,50.80
2023-05-02T18:44:38.091Z,51.00
2023-05-02T18:47:05.589Z,51.00
2023-05-02T18:49:33.095Z,50.80
2023-05-02T18:52:00.586Z,50.70
2023-05-02T18:54:29.184Z,51.00
2023-05-02T18:56:56.678Z,51.00
2023-05-02T18:59:24.239Z,51.40
2023-05-02T19:01:52.107Z,51.50
2023-05-02T19:04:19.920Z,51.70
2023-05-02T19:06:47.720Z,51.90
2023-05-02T19:09:15.717Z,52.90
2023-05-02T19:11:43.230Z,52.90
2023-05-02T19:14:11.791Z,53.50
2023-05-02T19:16:41.980Z,53.90
2023-05-02T19:19:09.545Z,54.10
2023-05-02T19:21:37.045Z,54.50
2023-05-02T19:24:04.901Z,54.80
2023-05-02T19:26:32.586Z,55.20
2023-05-02T19:29:00.117Z,56.00
2023-05-02T19:31:27.958Z,55.50
2023-05-02T19:33:55.696Z,56.00
2023-05-02T19:36:24.665Z,56.20
2023-05-02T19:38:53.941Z,56.40
2023-05-02T19:41:22.240Z,56.80
2023-05-02T19:43:50.418Z,57.00
2023-05-02T19:46:18.819Z,57.90
2023-05-02T19:48:46.361Z,58.40
2023-05-02T19:51:14.012Z,59.30
2023-05-02T19:53:41.576Z,59.70
2023-05-02T19:56:09.157Z,59.00
2023-05-02T19:58:36.703Z,59.30
2023-05-02T20:01:04.413Z,59.40
2023-05-02T20:03:32.241Z,59.60
2023-05-02T20:05:59.799Z,59.60
2023-05-02T20:08:28.024Z,59.90
2023-05-02T20:10:56.367Z,59.70
2023-05-02T20:13:23.930Z,60.20
2023-05-02T20:15:53.389Z,59.90
2023-05-02T20:18:21.118Z,59.90
2023-05-02T20:20:48.845Z,59.80
2023-05-02T20:23:16.549Z,60.20
2023-05-02T20:25:44.100Z,60.10
2023-05-02T20:28:11.674Z,60.60
2023-05-02T20:30:39.764Z,60.80
2023-05-02T20:33:15.467Z,61.00
2023-05-02T20:35:45.048Z,61.10
2023-05-02T20:38:12.550Z,61.80
2023-05-02T20:40:40.758Z,61.70
2023-05-02T20:43:08.964Z,62.90
2023-05-02T20:45:36.544Z,62.60
2023-05-02T20:48:04.362Z,62.60
2023-05-02T20:50:32.098Z,62.10
2023-05-02T20:52:59.595Z,62.10
2023-05-02T20:55:27.614Z,62.30
2023-05-02T20:57:55.298Z,62.10
2023-05-02T21:00:23.412Z,62.20
2023-05-02T21:02:51.306Z,62.40
2023-05-02T21:05:18.894Z,62.20
2023-05-02T21:07:46.392Z,62.30
2023-05-02T21:10:14.884Z,62.80
2023-05-02T21:12:42.494Z,63.00
2023-05-02T21:15:10.258Z,63.00
2023-05-02T21:17:39.741Z,63.10
2023-05-02T21:20:09.696Z,63.20
2023-05-02T21:22:37.178Z,63.40
2023-05-02T21:25:05.451Z,63.20
2023-05-02T21:27:32.990Z,63.70
2023-05-02T21:30:00.953Z,63.80
2023-05-02T21:32:29.433Z,63.80
2023-05-02T21:34:56.969Z,64.50
2023-05-02T21:37:24.474Z,65.30
2023-05-02T21:39:52.179Z,65.30
2023-05-02T21:42:19.872Z,65.40
2023-05-02T21:44:47.413Z,65.30
2023-05-02T21:47:15.066Z,65.20
2023-05-02T21:49:42.649Z,65.60
2023-05-02T21:52:10.203Z,66.00
2023-05-02T21:54:37.777Z,65.80
2023-05-02T21:57:05.294Z,66.00
2023-05-02T21:59:32.817Z,65.80
2023-05-02T22:02:00.478Z,65.90
2023-05-02T22:04:28.095Z,66.60
2023-05-02T22:06:55.647Z,67.50
2023-05-02T22:09:23.235Z,67.20
2023-05-02T22:11:50.855Z,67.50
2023-05-02T22:14:18.354Z,67.80
2023-05-02T22:16:46.124Z,68.20
2023-05-02T22:19:17.567Z,67.60
2023-05-02T22:21:45.035Z,67.60
2023-05-02T22:24:12.588Z,68.00
2023-05-02T22:26:40.076Z,68.00
2023-05-02T22:29:07.654Z,67.80
2023-05-02T22:31:35.235Z,68.10
2023-05-02T22:34:02.795Z,68.70
2023-05-02T22:36:31.125Z,69.30
2023-05-02T22:38:58.657Z,69.60
2023-05-02T22:41:26.157Z,70.20
2023-05-02T22:43:53.789Z,70.80
2023-05-02T22:46:21.362Z,70.60
2023-05-02T22:48:49.157Z,69.90
2023-05-02T22:51:16.717Z,69.40
2023-05-02T22:53:44.206Z,69.70
2023-05-02T22:56:11.674Z,69.80
2023-05-02T22:58:39.198Z,70.50
2023-05-02T23:01:06.942Z,70.30
2023-05-02T23:03:34.823Z,70.30
2023-05-02T23:06:02.540Z,70.80
2023-05-02T23:08:30.151Z,70.90
2023-05-02T23:10:58.738Z,71.20
2023-05-02T23:13:26.379Z,71.70
2023-05-02T23:15:54.973Z,71.90
2023-05-02T23:18:23.308Z,72.00
2023-05-02T23:20:51.137Z,72.30
2023-05-02T23:23:18.666Z,72.30
2023-05-02T23:25:46.268Z,72.40
2023-05-02T23:28:13.831Z,73.10
2023-05-02T23:30:41.555Z,73.00
2023-05-02T23:33:09.295Z,73.40
2023-05-02T23:35:36.857Z,74.00
2023-05-02T23:38:10.323Z,74.00
2023-05-02T23:40:37.802Z,74.20
2023-05-02T23:43:07.348Z,74.20
2023-05-02T23:45:34.899Z,74.70
2023-05-02T23:48:02.509Z,75.30
2023-05-02T23:50:31.857Z,75.50
2023-05-02T23:52:59.407Z,75.20
2023-05-02T23:55:27.012Z,75.40
2023-05-02T23:57:54.552Z,75.50
